ESOE/ORB METAR and TAF weather

Enter ICAO airport designator
Station Type Date Time Source
ESOE METAR 2020/01/21 18:20 UTC NOAA

ESOE 211820Z 23006KT CAVOK 07/02 Q1019


Station Type Date Time Source
ESOE Decoded METAR 2020/01/21 18:20 UTC NOAA

Orebro Private , Sweden (ESOE) 59-14N 015-03E
Jan 21, 2020 - 01:20 PM EST / 2020.01.21 1820 UTC
Wind: from the SW (230 degrees) at 7 MPH (6 KT):0
Visibility: greater than 7 mile(s):0
Temperature: 44 F (7 C)
Dew Point: 35 F (2 C)
Relative Humidity: 70%
Pressure (altimeter): 30.09 in. Hg (1019 hPa)
ob: ESOE 211820Z 23006KT CAVOK 07/02 Q1019
cycle: 18

Station Type Date Time Source
ESOE TAF 2016/03/16 04:36 UTC NOAA

TAF TAF ESOE 160330Z 1604/1624 23005KT 9000 BR NSC PROB40 1604/1607 1200 BR

Example: see airport list